<?xml version="1.0" encoding="UTF-8"?>
<gpx creator="Wikiloc - https://www.wikiloc.com" version="1.1" xmlns="http://www.topografix.com/GPX/1/1" xmlns:xsi="http://www.w3.org/2001/XMLSchema-instance" xsi:schemaLocation="http://www.topografix.com/GPX/1/1 http://www.topografix.com/GPX/1/1/gpx.xsd">
  <wpt lat="39.232976" lon="-6.155179">
    <ele>586.1</ele>
    <time>2016-03-06T21:13:19Z</time>
    <name>PILON</name>
    <cmt>Pilón e Agua</cmt>
    <desc>Pilón e Agua</desc>
  </wpt>
  <wpt lat="39.227038" lon="-6.146851">
    <ele>705.0</ele>
    <time>2016-03-10T09:12:57Z</time>
    <name>Panel de inicio</name>
    <cmt>Panel de inicio PR-CC 30, PR-CC 29 y SL-CC 4</cmt>
    <desc>Panel de inicio PR-CC 30, PR-CC 29 y SL-CC 4</desc>
  </wpt>
  <wpt lat="39.229285" lon="-6.141436">
    <ele>686.1</ele>
    <time>2016-03-10T09:50:14Z</time>
    <name>FTE</name>
    <cmt>Area recreativa y fuente del Salor</cmt>
    <desc>Area recreativa y fuente del Salor</desc>
  </wpt>
  <wpt lat="39.230104" lon="-6.141123">
    <ele>684.0</ele>
    <time>2016-03-10T10:03:36Z</time>
    <name>CHOZO</name>
    <cmt></cmt>
    <desc></desc>
  </wpt>
  <wpt lat="39.231490" lon="-6.141818">
    <ele>688.8</ele>
    <time>2016-03-10T10:07:36Z</time>
    <name>CHOZO</name>
    <cmt></cmt>
    <desc></desc>
  </wpt>
  <wpt lat="39.227104" lon="-6.145955">
    <ele>701.0</ele>
    <time>2016-03-10T09:29:47Z</time>
    <name>FTE</name>
    <cmt></cmt>
    <desc></desc>
  </wpt>
  <wpt lat="39.242783" lon="-6.138425">
    <ele>658.1</ele>
    <time>2016-03-10T10:30:58Z</time>
    <name>POZO Y PILON</name>
    <cmt></cmt>
    <desc></desc>
  </wpt>
  <wpt lat="39.234065" lon="-6.154324">
    <ele>0.0</ele>
    <time>2016-03-18T20:30:50Z</time>
    <name>CNO EMPEDRADO</name>
    <cmt></cmt>
    <desc></desc>
  </wpt>
  <wpt lat="39.231362" lon="-6.153657">
    <ele>0.0</ele>
    <time>2016-03-21T11:21:48Z</time>
    <name>CNO EMPEDRADO</name>
    <cmt></cmt>
    <desc></desc>
  </wpt>
  <trk>
    <name>SL-CC 4 'Ruta de los Pilones' (Montánchez)</name>
    <cmt>Más información en http://fexme.com/buscar-senderos/</cmt>
    <desc>Más información en http://fexme.com/buscar-senderos/</desc>
    <trkseg>
      <trkpt lat="39.227018" lon="-6.146857">
        <ele>696.9</ele>
        <time>2016-03-11T07:11:47Z</time>
      </trkpt>
      <trkpt lat="39.226984" lon="-6.146786">
        <ele>697.0</ele>
        <time>2016-03-11T07:12:02Z</time>
      </trkpt>
      <trkpt lat="39.226948" lon="-6.146663">
        <ele>696.9</ele>
        <time>2016-03-11T07:12:17Z</time>
      </trkpt>
      <trkpt lat="39.226907" lon="-6.146587">
        <ele>697.0</ele>
        <time>2016-03-11T07:12:32Z</time>
      </trkpt>
      <trkpt lat="39.226843" lon="-6.146523">
        <ele>697.2</ele>
        <time>2016-03-11T07:12:47Z</time>
      </trkpt>
      <trkpt lat="39.226961" lon="-6.145829">
        <ele>698.8</ele>
        <time>2016-03-11T07:13:47Z</time>
      </trkpt>
      <trkpt lat="39.227022" lon="-6.145664">
        <ele>698.8</ele>
        <time>2016-03-11T07:14:02Z</time>
      </trkpt>
      <trkpt lat="39.227249" lon="-6.145255">
        <ele>697.0</ele>
        <time>2016-03-11T07:14:47Z</time>
      </trkpt>
      <trkpt lat="39.227532" lon="-6.144957">
        <ele>696.2</ele>
        <time>2016-03-11T07:15:17Z</time>
      </trkpt>
      <trkpt lat="39.227803" lon="-6.144720">
        <ele>695.8</ele>
        <time>2016-03-11T07:15:47Z</time>
      </trkpt>
      <trkpt lat="39.227941" lon="-6.144561">
        <ele>694.2</ele>
        <time>2016-03-11T07:16:02Z</time>
      </trkpt>
      <trkpt lat="39.228067" lon="-6.144385">
        <ele>692.9</ele>
        <time>2016-03-11T07:16:17Z</time>
      </trkpt>
      <trkpt lat="39.228234" lon="-6.144196">
        <ele>692.3</ele>
        <time>2016-03-11T07:16:32Z</time>
      </trkpt>
      <trkpt lat="39.228382" lon="-6.143976">
        <ele>690.6</ele>
        <time>2016-03-11T07:16:47Z</time>
      </trkpt>
      <trkpt lat="39.228534" lon="-6.143781">
        <ele>688.0</ele>
        <time>2016-03-11T07:17:02Z</time>
      </trkpt>
      <trkpt lat="39.228712" lon="-6.143479">
        <ele>686.4</ele>
        <time>2016-03-11T07:17:17Z</time>
      </trkpt>
      <trkpt lat="39.228900" lon="-6.143179">
        <ele>685.0</ele>
        <time>2016-03-11T07:17:32Z</time>
      </trkpt>
      <trkpt lat="39.229013" lon="-6.142905">
        <ele>684.2</ele>
        <time>2016-03-11T07:17:47Z</time>
      </trkpt>
      <trkpt lat="39.229135" lon="-6.142552">
        <ele>682.4</ele>
        <time>2016-03-11T07:18:02Z</time>
      </trkpt>
      <trkpt lat="39.229218" lon="-6.142257">
        <ele>681.0</ele>
        <time>2016-03-11T07:18:17Z</time>
      </trkpt>
      <trkpt lat="39.229290" lon="-6.141912">
        <ele>679.5</ele>
        <time>2016-03-11T07:18:32Z</time>
      </trkpt>
      <trkpt lat="39.229372" lon="-6.141578">
        <ele>679.3</ele>
        <time>2016-03-11T07:18:47Z</time>
      </trkpt>
      <trkpt lat="39.229473" lon="-6.141369">
        <ele>681.0</ele>
        <time>2016-03-11T07:19:02Z</time>
      </trkpt>
      <trkpt lat="39.229612" lon="-6.141166">
        <ele>682.9</ele>
        <time>2016-03-11T07:19:17Z</time>
      </trkpt>
      <trkpt lat="39.229689" lon="-6.141105">
        <ele>683.3</ele>
        <time>2016-03-11T07:19:32Z</time>
      </trkpt>
      <trkpt lat="39.229756" lon="-6.141079">
        <ele>683.1</ele>
        <time>2016-03-11T07:19:47Z</time>
      </trkpt>
      <trkpt lat="39.229831" lon="-6.141097">
        <ele>681.7</ele>
        <time>2016-03-11T07:20:02Z</time>
      </trkpt>
      <trkpt lat="39.229924" lon="-6.141110">
        <ele>680.1</ele>
        <time>2016-03-11T07:20:17Z</time>
      </trkpt>
      <trkpt lat="39.230074" lon="-6.141090">
        <ele>679.0</ele>
        <time>2016-03-11T07:20:32Z</time>
      </trkpt>
      <trkpt lat="39.230174" lon="-6.141103">
        <ele>678.5</ele>
        <time>2016-03-11T07:20:47Z</time>
      </trkpt>
      <trkpt lat="39.230239" lon="-6.141120">
        <ele>678.1</ele>
        <time>2016-03-11T07:21:02Z</time>
      </trkpt>
      <trkpt lat="39.230353" lon="-6.141240">
        <ele>677.6</ele>
        <time>2016-03-11T07:21:17Z</time>
      </trkpt>
      <trkpt lat="39.230472" lon="-6.141259">
        <ele>678.3</ele>
        <time>2016-03-11T07:21:32Z</time>
      </trkpt>
      <trkpt lat="39.230569" lon="-6.141258">
        <ele>679.1</ele>
        <time>2016-03-11T07:21:47Z</time>
      </trkpt>
      <trkpt lat="39.230735" lon="-6.141320">
        <ele>680.6</ele>
        <time>2016-03-11T07:22:17Z</time>
      </trkpt>
      <trkpt lat="39.230780" lon="-6.141411">
        <ele>679.9</ele>
        <time>2016-03-11T07:22:32Z</time>
      </trkpt>
      <trkpt lat="39.230810" lon="-6.141503">
        <ele>679.0</ele>
        <time>2016-03-11T07:22:47Z</time>
      </trkpt>
      <trkpt lat="39.230835" lon="-6.141551">
        <ele>678.7</ele>
        <time>2016-03-11T07:23:02Z</time>
      </trkpt>
      <trkpt lat="39.230945" lon="-6.141628">
        <ele>679.2</ele>
        <time>2016-03-11T07:23:17Z</time>
      </trkpt>
      <trkpt lat="39.231010" lon="-6.141668">
        <ele>679.5</ele>
        <time>2016-03-11T07:23:32Z</time>
      </trkpt>
      <trkpt lat="39.231232" lon="-6.141822">
        <ele>679.6</ele>
        <time>2016-03-11T07:24:17Z</time>
      </trkpt>
      <trkpt lat="39.231446" lon="-6.141830">
        <ele>679.3</ele>
        <time>2016-03-11T07:24:47Z</time>
      </trkpt>
      <trkpt lat="39.231585" lon="-6.141793">
        <ele>678.4</ele>
        <time>2016-03-11T07:25:02Z</time>
      </trkpt>
      <trkpt lat="39.231689" lon="-6.141751">
        <ele>677.8</ele>
        <time>2016-03-11T07:25:17Z</time>
      </trkpt>
      <trkpt lat="39.231807" lon="-6.141662">
        <ele>677.6</ele>
        <time>2016-03-11T07:25:32Z</time>
      </trkpt>
      <trkpt lat="39.231886" lon="-6.141589">
        <ele>678.2</ele>
        <time>2016-03-11T07:25:47Z</time>
      </trkpt>
      <trkpt lat="39.231921" lon="-6.141544">
        <ele>678.8</ele>
        <time>2016-03-11T07:26:02Z</time>
      </trkpt>
      <trkpt lat="39.232037" lon="-6.141580">
        <ele>677.1</ele>
        <time>2016-03-11T07:26:32Z</time>
      </trkpt>
      <trkpt lat="39.232230" lon="-6.141491">
        <ele>677.1</ele>
        <time>2016-03-11T07:27:02Z</time>
      </trkpt>
      <trkpt lat="39.232338" lon="-6.141461">
        <ele>677.3</ele>
        <time>2016-03-11T07:27:17Z</time>
      </trkpt>
      <trkpt lat="39.232421" lon="-6.141452">
        <ele>677.1</ele>
        <time>2016-03-11T07:27:32Z</time>
      </trkpt>
      <trkpt lat="39.232520" lon="-6.141474">
        <ele>676.6</ele>
        <time>2016-03-11T07:27:47Z</time>
      </trkpt>
      <trkpt lat="39.232599" lon="-6.141456">
        <ele>677.2</ele>
        <time>2016-03-11T07:28:02Z</time>
      </trkpt>
      <trkpt lat="39.232724" lon="-6.141402">
        <ele>678.6</ele>
        <time>2016-03-11T07:28:32Z</time>
      </trkpt>
      <trkpt lat="39.232814" lon="-6.141395">
        <ele>678.9</ele>
        <time>2016-03-11T07:28:47Z</time>
      </trkpt>
      <trkpt lat="39.232917" lon="-6.141478">
        <ele>678.0</ele>
        <time>2016-03-11T07:29:17Z</time>
      </trkpt>
      <trkpt lat="39.232989" lon="-6.141498">
        <ele>678.0</ele>
        <time>2016-03-11T07:29:32Z</time>
      </trkpt>
      <trkpt lat="39.233062" lon="-6.141510">
        <ele>678.1</ele>
        <time>2016-03-11T07:29:47Z</time>
      </trkpt>
      <trkpt lat="39.233145" lon="-6.141518">
        <ele>677.9</ele>
        <time>2016-03-11T07:30:02Z</time>
      </trkpt>
      <trkpt lat="39.233246" lon="-6.141583">
        <ele>677.1</ele>
        <time>2016-03-11T07:30:17Z</time>
      </trkpt>
      <trkpt lat="39.233369" lon="-6.141619">
        <ele>676.3</ele>
        <time>2016-03-11T07:30:32Z</time>
      </trkpt>
      <trkpt lat="39.233457" lon="-6.141630">
        <ele>675.6</ele>
        <time>2016-03-11T07:30:47Z</time>
      </trkpt>
      <trkpt lat="39.233554" lon="-6.141635">
        <ele>674.9</ele>
        <time>2016-03-11T07:31:02Z</time>
      </trkpt>
      <trkpt lat="39.233630" lon="-6.141614">
        <ele>675.0</ele>
        <time>2016-03-11T07:31:17Z</time>
      </trkpt>
      <trkpt lat="39.233786" lon="-6.141671">
        <ele>675.2</ele>
        <time>2016-03-11T07:31:47Z</time>
      </trkpt>
      <trkpt lat="39.233885" lon="-6.141734">
        <ele>675.5</ele>
        <time>2016-03-11T07:32:02Z</time>
      </trkpt>
      <trkpt lat="39.234069" lon="-6.141816">
        <ele>674.9</ele>
        <time>2016-03-11T07:32:32Z</time>
      </trkpt>
      <trkpt lat="39.234139" lon="-6.141828">
        <ele>674.7</ele>
        <time>2016-03-11T07:32:47Z</time>
      </trkpt>
      <trkpt lat="39.234202" lon="-6.141820">
        <ele>674.4</ele>
        <time>2016-03-11T07:33:02Z</time>
      </trkpt>
      <trkpt lat="39.234234" lon="-6.141836">
        <ele>673.8</ele>
        <time>2016-03-11T07:33:17Z</time>
      </trkpt>
      <trkpt lat="39.234256" lon="-6.141896">
        <ele>672.5</ele>
        <time>2016-03-11T07:33:32Z</time>
      </trkpt>
      <trkpt lat="39.234251" lon="-6.141977">
        <ele>671.0</ele>
        <time>2016-03-11T07:33:47Z</time>
      </trkpt>
      <trkpt lat="39.234262" lon="-6.142040">
        <ele>669.2</ele>
        <time>2016-03-11T07:34:02Z</time>
      </trkpt>
      <trkpt lat="39.234369" lon="-6.142010">
        <ele>668.4</ele>
        <time>2016-03-11T07:34:32Z</time>
      </trkpt>
      <trkpt lat="39.234406" lon="-6.142029">
        <ele>667.4</ele>
        <time>2016-03-11T07:34:47Z</time>
      </trkpt>
      <trkpt lat="39.234409" lon="-6.142069">
        <ele>666.4</ele>
        <time>2016-03-11T07:35:02Z</time>
      </trkpt>
      <trkpt lat="39.234445" lon="-6.142082">
        <ele>665.5</ele>
        <time>2016-03-11T07:35:17Z</time>
      </trkpt>
      <trkpt lat="39.234553" lon="-6.142078">
        <ele>664.7</ele>
        <time>2016-03-11T07:35:47Z</time>
      </trkpt>
      <trkpt lat="39.234650" lon="-6.142094">
        <ele>663.4</ele>
        <time>2016-03-11T07:36:02Z</time>
      </trkpt>
      <trkpt lat="39.234686" lon="-6.142095">
        <ele>663.1</ele>
        <time>2016-03-11T07:36:17Z</time>
      </trkpt>
      <trkpt lat="39.234768" lon="-6.142023">
        <ele>663.8</ele>
        <time>2016-03-11T07:36:32Z</time>
      </trkpt>
      <trkpt lat="39.234819" lon="-6.142000">
        <ele>663.9</ele>
        <time>2016-03-11T07:36:47Z</time>
      </trkpt>
      <trkpt lat="39.234909" lon="-6.141994">
        <ele>663.2</ele>
        <time>2016-03-11T07:37:02Z</time>
      </trkpt>
      <trkpt lat="39.234961" lon="-6.141997">
        <ele>662.7</ele>
        <time>2016-03-11T07:37:17Z</time>
      </trkpt>
      <trkpt lat="39.235134" lon="-6.141987">
        <ele>661.1</ele>
        <time>2016-03-11T07:37:47Z</time>
      </trkpt>
      <trkpt lat="39.235189" lon="-6.142023">
        <ele>659.2</ele>
        <time>2016-03-11T07:38:02Z</time>
      </trkpt>
      <trkpt lat="39.235438" lon="-6.141992">
        <ele>658.0</ele>
        <time>2016-03-11T07:38:47Z</time>
      </trkpt>
      <trkpt lat="39.235497" lon="-6.141978">
        <ele>658.1</ele>
        <time>2016-03-11T07:39:02Z</time>
      </trkpt>
      <trkpt lat="39.235559" lon="-6.141938">
        <ele>659.1</ele>
        <time>2016-03-11T07:39:17Z</time>
      </trkpt>
      <trkpt lat="39.235636" lon="-6.141863">
        <ele>660.3</ele>
        <time>2016-03-11T07:39:47Z</time>
      </trkpt>
      <trkpt lat="39.235727" lon="-6.141833">
        <ele>659.8</ele>
        <time>2016-03-11T07:40:02Z</time>
      </trkpt>
      <trkpt lat="39.235859" lon="-6.141787">
        <ele>659.4</ele>
        <time>2016-03-11T07:40:17Z</time>
      </trkpt>
      <trkpt lat="39.235910" lon="-6.141771">
        <ele>659.4</ele>
        <time>2016-03-11T07:40:32Z</time>
      </trkpt>
      <trkpt lat="39.235968" lon="-6.141739">
        <ele>660.0</ele>
        <time>2016-03-11T07:40:47Z</time>
      </trkpt>
      <trkpt lat="39.236065" lon="-6.141654">
        <ele>662.9</ele>
        <time>2016-03-11T07:41:17Z</time>
      </trkpt>
      <trkpt lat="39.236097" lon="-6.141563">
        <ele>666.5</ele>
        <time>2016-03-11T07:41:32Z</time>
      </trkpt>
      <trkpt lat="39.236124" lon="-6.141490">
        <ele>669.4</ele>
        <time>2016-03-11T07:41:47Z</time>
      </trkpt>
      <trkpt lat="39.236196" lon="-6.141374">
        <ele>673.3</ele>
        <time>2016-03-11T07:42:17Z</time>
      </trkpt>
      <trkpt lat="39.236554" lon="-6.141203">
        <ele>672.7</ele>
        <time>2016-03-11T07:43:17Z</time>
      </trkpt>
      <trkpt lat="39.236654" lon="-6.141164">
        <ele>672.0</ele>
        <time>2016-03-11T07:43:32Z</time>
      </trkpt>
      <trkpt lat="39.236781" lon="-6.141165">
        <ele>668.6</ele>
        <time>2016-03-11T07:43:47Z</time>
      </trkpt>
      <trkpt lat="39.236897" lon="-6.141151">
        <ele>666.2</ele>
        <time>2016-03-11T07:44:02Z</time>
      </trkpt>
      <trkpt lat="39.237010" lon="-6.141164">
        <ele>662.8</ele>
        <time>2016-03-11T07:44:17Z</time>
      </trkpt>
      <trkpt lat="39.237082" lon="-6.141129">
        <ele>662.7</ele>
        <time>2016-03-11T07:44:32Z</time>
      </trkpt>
      <trkpt lat="39.237154" lon="-6.141060">
        <ele>663.8</ele>
        <time>2016-03-11T07:44:47Z</time>
      </trkpt>
      <trkpt lat="39.237367" lon="-6.140921">
        <ele>663.0</ele>
        <time>2016-03-11T07:45:17Z</time>
      </trkpt>
      <trkpt lat="39.237490" lon="-6.140872">
        <ele>660.9</ele>
        <time>2016-03-11T07:45:32Z</time>
      </trkpt>
      <trkpt lat="39.237575" lon="-6.140851">
        <ele>660.0</ele>
        <time>2016-03-11T07:45:47Z</time>
      </trkpt>
      <trkpt lat="39.237665" lon="-6.140845">
        <ele>658.6</ele>
        <time>2016-03-11T07:46:02Z</time>
      </trkpt>
      <trkpt lat="39.237732" lon="-6.140822">
        <ele>658.3</ele>
        <time>2016-03-11T07:46:17Z</time>
      </trkpt>
      <trkpt lat="39.237922" lon="-6.140794">
        <ele>656.9</ele>
        <time>2016-03-11T07:46:47Z</time>
      </trkpt>
      <trkpt lat="39.237986" lon="-6.140803">
        <ele>655.9</ele>
        <time>2016-03-11T07:47:02Z</time>
      </trkpt>
      <trkpt lat="39.238149" lon="-6.140872">
        <ele>650.5</ele>
        <time>2016-03-11T07:47:32Z</time>
      </trkpt>
      <trkpt lat="39.238241" lon="-6.140836">
        <ele>649.9</ele>
        <time>2016-03-11T07:47:47Z</time>
      </trkpt>
      <trkpt lat="39.238298" lon="-6.140782">
        <ele>650.4</ele>
        <time>2016-03-11T07:48:02Z</time>
      </trkpt>
      <trkpt lat="39.238356" lon="-6.140753">
        <ele>650.2</ele>
        <time>2016-03-11T07:48:17Z</time>
      </trkpt>
      <trkpt lat="39.238423" lon="-6.140736">
        <ele>649.5</ele>
        <time>2016-03-11T07:48:32Z</time>
      </trkpt>
      <trkpt lat="39.238502" lon="-6.140744">
        <ele>647.9</ele>
        <time>2016-03-11T07:48:47Z</time>
      </trkpt>
      <trkpt lat="39.238614" lon="-6.140719">
        <ele>646.7</ele>
        <time>2016-03-11T07:49:02Z</time>
      </trkpt>
      <trkpt lat="39.238680" lon="-6.140656">
        <ele>647.7</ele>
        <time>2016-03-11T07:49:17Z</time>
      </trkpt>
      <trkpt lat="39.238733" lon="-6.140613">
        <ele>648.3</ele>
        <time>2016-03-11T07:49:32Z</time>
      </trkpt>
      <trkpt lat="39.238867" lon="-6.140541">
        <ele>648.9</ele>
        <time>2016-03-11T07:50:02Z</time>
      </trkpt>
      <trkpt lat="39.238936" lon="-6.140509">
        <ele>649.8</ele>
        <time>2016-03-11T07:50:17Z</time>
      </trkpt>
      <trkpt lat="39.239014" lon="-6.140477">
        <ele>650.7</ele>
        <time>2016-03-11T07:50:32Z</time>
      </trkpt>
      <trkpt lat="39.239224" lon="-6.140420">
        <ele>651.5</ele>
        <time>2016-03-11T07:51:17Z</time>
      </trkpt>
      <trkpt lat="39.239497" lon="-6.140165">
        <ele>656.7</ele>
        <time>2016-03-11T07:52:17Z</time>
      </trkpt>
      <trkpt lat="39.239614" lon="-6.140146">
        <ele>656.2</ele>
        <time>2016-03-11T07:52:32Z</time>
      </trkpt>
      <trkpt lat="39.239722" lon="-6.140144">
        <ele>655.3</ele>
        <time>2016-03-11T07:52:47Z</time>
      </trkpt>
      <trkpt lat="39.239790" lon="-6.140176">
        <ele>653.0</ele>
        <time>2016-03-11T07:53:02Z</time>
      </trkpt>
      <trkpt lat="39.239908" lon="-6.140105">
        <ele>653.8</ele>
        <time>2016-03-11T07:53:32Z</time>
      </trkpt>
      <trkpt lat="39.239945" lon="-6.140075">
        <ele>654.2</ele>
        <time>2016-03-11T07:53:47Z</time>
      </trkpt>
      <trkpt lat="39.240030" lon="-6.140054">
        <ele>653.4</ele>
        <time>2016-03-11T07:54:02Z</time>
      </trkpt>
      <trkpt lat="39.240123" lon="-6.139998">
        <ele>653.0</ele>
        <time>2016-03-11T07:54:32Z</time>
      </trkpt>
      <trkpt lat="39.240184" lon="-6.139990">
        <ele>651.7</ele>
        <time>2016-03-11T07:54:47Z</time>
      </trkpt>
      <trkpt lat="39.240354" lon="-6.139933">
        <ele>649.8</ele>
        <time>2016-03-11T07:55:17Z</time>
      </trkpt>
      <trkpt lat="39.240431" lon="-6.139849">
        <ele>651.1</ele>
        <time>2016-03-11T07:55:32Z</time>
      </trkpt>
      <trkpt lat="39.240476" lon="-6.139775">
        <ele>652.6</ele>
        <time>2016-03-11T07:55:47Z</time>
      </trkpt>
      <trkpt lat="39.240510" lon="-6.139620">
        <ele>656.7</ele>
        <time>2016-03-11T07:56:02Z</time>
      </trkpt>
      <trkpt lat="39.240558" lon="-6.139520">
        <ele>658.8</ele>
        <time>2016-03-11T07:56:17Z</time>
      </trkpt>
      <trkpt lat="39.240617" lon="-6.139370">
        <ele>661.1</ele>
        <time>2016-03-11T07:56:32Z</time>
      </trkpt>
      <trkpt lat="39.240639" lon="-6.139279">
        <ele>662.5</ele>
        <time>2016-03-11T07:56:47Z</time>
      </trkpt>
      <trkpt lat="39.240702" lon="-6.139256">
        <ele>661.4</ele>
        <time>2016-03-11T07:57:02Z</time>
      </trkpt>
      <trkpt lat="39.240772" lon="-6.139094">
        <ele>663.1</ele>
        <time>2016-03-11T07:57:32Z</time>
      </trkpt>
      <trkpt lat="39.240835" lon="-6.138993">
        <ele>663.7</ele>
        <time>2016-03-11T07:58:02Z</time>
      </trkpt>
      <trkpt lat="39.240828" lon="-6.138796">
        <ele>668.1</ele>
        <time>2016-03-11T07:58:32Z</time>
      </trkpt>
      <trkpt lat="39.240863" lon="-6.138763">
        <ele>668.1</ele>
        <time>2016-03-11T07:58:47Z</time>
      </trkpt>
      <trkpt lat="39.240908" lon="-6.138744">
        <ele>667.7</ele>
        <time>2016-03-11T07:59:02Z</time>
      </trkpt>
      <trkpt lat="39.240971" lon="-6.138747">
        <ele>666.3</ele>
        <time>2016-03-11T07:59:17Z</time>
      </trkpt>
      <trkpt lat="39.241023" lon="-6.138739">
        <ele>665.5</ele>
        <time>2016-03-11T07:59:32Z</time>
      </trkpt>
      <trkpt lat="39.241071" lon="-6.138697">
        <ele>665.6</ele>
        <time>2016-03-11T07:59:47Z</time>
      </trkpt>
      <trkpt lat="39.241096" lon="-6.138687">
        <ele>665.4</ele>
        <time>2016-03-11T08:00:02Z</time>
      </trkpt>
      <trkpt lat="39.241166" lon="-6.138713">
        <ele>663.6</ele>
        <time>2016-03-11T08:00:17Z</time>
      </trkpt>
      <trkpt lat="39.241290" lon="-6.138818">
        <ele>659.5</ele>
        <time>2016-03-11T08:01:02Z</time>
      </trkpt>
      <trkpt lat="39.241358" lon="-6.138809">
        <ele>658.8</ele>
        <time>2016-03-11T08:01:17Z</time>
      </trkpt>
      <trkpt lat="39.241409" lon="-6.138790">
        <ele>658.5</ele>
        <time>2016-03-11T08:01:32Z</time>
      </trkpt>
      <trkpt lat="39.241627" lon="-6.138758">
        <ele>656.0</ele>
        <time>2016-03-11T08:02:02Z</time>
      </trkpt>
      <trkpt lat="39.241695" lon="-6.138697">
        <ele>655.7</ele>
        <time>2016-03-11T08:02:17Z</time>
      </trkpt>
      <trkpt lat="39.241783" lon="-6.138633">
        <ele>655.5</ele>
        <time>2016-03-11T08:02:32Z</time>
      </trkpt>
      <trkpt lat="39.241844" lon="-6.138610">
        <ele>655.1</ele>
        <time>2016-03-11T08:02:47Z</time>
      </trkpt>
      <trkpt lat="39.241892" lon="-6.138652">
        <ele>654.0</ele>
        <time>2016-03-11T08:03:02Z</time>
      </trkpt>
      <trkpt lat="39.241917" lon="-6.138659">
        <ele>653.6</ele>
        <time>2016-03-11T08:03:17Z</time>
      </trkpt>
      <trkpt lat="39.241975" lon="-6.138712">
        <ele>652.0</ele>
        <time>2016-03-11T08:03:32Z</time>
      </trkpt>
      <trkpt lat="39.242040" lon="-6.138732">
        <ele>650.4</ele>
        <time>2016-03-11T08:03:47Z</time>
      </trkpt>
      <trkpt lat="39.242211" lon="-6.138610">
        <ele>649.2</ele>
        <time>2016-03-11T08:04:32Z</time>
      </trkpt>
      <trkpt lat="39.242449" lon="-6.138490">
        <ele>651.9</ele>
        <time>2016-03-11T08:05:32Z</time>
      </trkpt>
      <trkpt lat="39.242521" lon="-6.138496">
        <ele>651.7</ele>
        <time>2016-03-11T08:05:47Z</time>
      </trkpt>
      <trkpt lat="39.242671" lon="-6.138458">
        <ele>652.7</ele>
        <time>2016-03-11T08:06:17Z</time>
      </trkpt>
      <trkpt lat="39.242722" lon="-6.138438">
        <ele>653.3</ele>
        <time>2016-03-11T08:06:32Z</time>
      </trkpt>
      <trkpt lat="39.242837" lon="-6.138434">
        <ele>652.7</ele>
        <time>2016-03-11T08:07:02Z</time>
      </trkpt>
      <trkpt lat="39.242970" lon="-6.138434">
        <ele>651.1</ele>
        <time>2016-03-11T08:07:32Z</time>
      </trkpt>
      <trkpt lat="39.243111" lon="-6.138393">
        <ele>651.4</ele>
        <time>2016-03-11T08:08:02Z</time>
      </trkpt>
      <trkpt lat="39.243233" lon="-6.138397">
        <ele>651.4</ele>
        <time>2016-03-11T08:08:17Z</time>
      </trkpt>
      <trkpt lat="39.243331" lon="-6.138382">
        <ele>652.1</ele>
        <time>2016-03-11T08:08:32Z</time>
      </trkpt>
      <trkpt lat="39.243402" lon="-6.138411">
        <ele>651.0</ele>
        <time>2016-03-11T08:08:47Z</time>
      </trkpt>
      <trkpt lat="39.243588" lon="-6.138490">
        <ele>647.7</ele>
        <time>2016-03-11T08:09:17Z</time>
      </trkpt>
      <trkpt lat="39.243648" lon="-6.138522">
        <ele>646.2</ele>
        <time>2016-03-11T08:09:32Z</time>
      </trkpt>
      <trkpt lat="39.243761" lon="-6.138564">
        <ele>644.2</ele>
        <time>2016-03-11T08:09:47Z</time>
      </trkpt>
      <trkpt lat="39.243868" lon="-6.138594">
        <ele>642.8</ele>
        <time>2016-03-11T08:10:02Z</time>
      </trkpt>
      <trkpt lat="39.244046" lon="-6.138691">
        <ele>638.5</ele>
        <time>2016-03-11T08:10:32Z</time>
      </trkpt>
      <trkpt lat="39.244143" lon="-6.138705">
        <ele>637.9</ele>
        <time>2016-03-11T08:10:47Z</time>
      </trkpt>
      <trkpt lat="39.244220" lon="-6.138734">
        <ele>636.7</ele>
        <time>2016-03-11T08:11:02Z</time>
      </trkpt>
      <trkpt lat="39.244272" lon="-6.138743">
        <ele>636.3</ele>
        <time>2016-03-11T08:11:17Z</time>
      </trkpt>
      <trkpt lat="39.244385" lon="-6.138741">
        <ele>636.4</ele>
        <time>2016-03-11T08:11:32Z</time>
      </trkpt>
      <trkpt lat="39.244589" lon="-6.138707">
        <ele>634.9</ele>
        <time>2016-03-11T08:12:02Z</time>
      </trkpt>
      <trkpt lat="39.244663" lon="-6.138695">
        <ele>633.9</ele>
        <time>2016-03-11T08:12:17Z</time>
      </trkpt>
      <trkpt lat="39.244790" lon="-6.138728">
        <ele>630.6</ele>
        <time>2016-03-11T08:12:32Z</time>
      </trkpt>
      <trkpt lat="39.244868" lon="-6.138768">
        <ele>628.2</ele>
        <time>2016-03-11T08:12:47Z</time>
      </trkpt>
      <trkpt lat="39.244945" lon="-6.138779">
        <ele>626.9</ele>
        <time>2016-03-11T08:13:02Z</time>
      </trkpt>
      <trkpt lat="39.245017" lon="-6.138777">
        <ele>626.2</ele>
        <time>2016-03-11T08:13:17Z</time>
      </trkpt>
      <trkpt lat="39.245158" lon="-6.138672">
        <ele>628.3</ele>
        <time>2016-03-11T08:13:47Z</time>
      </trkpt>
      <trkpt lat="39.245248" lon="-6.138657">
        <ele>627.6</ele>
        <time>2016-03-11T08:14:17Z</time>
      </trkpt>
      <trkpt lat="39.245317" lon="-6.138614">
        <ele>628.2</ele>
        <time>2016-03-11T08:14:32Z</time>
      </trkpt>
      <trkpt lat="39.245424" lon="-6.138606">
        <ele>626.6</ele>
        <time>2016-03-11T08:15:02Z</time>
      </trkpt>
      <trkpt lat="39.245457" lon="-6.138631">
        <ele>625.0</ele>
        <time>2016-03-11T08:15:17Z</time>
      </trkpt>
      <trkpt lat="39.245526" lon="-6.138721">
        <ele>620.5</ele>
        <time>2016-03-11T08:15:47Z</time>
      </trkpt>
      <trkpt lat="39.245608" lon="-6.138738">
        <ele>618.8</ele>
        <time>2016-03-11T08:16:02Z</time>
      </trkpt>
      <trkpt lat="39.245720" lon="-6.138797">
        <ele>615.3</ele>
        <time>2016-03-11T08:16:32Z</time>
      </trkpt>
      <trkpt lat="39.245736" lon="-6.138831">
        <ele>614.0</ele>
        <time>2016-03-11T08:16:47Z</time>
      </trkpt>
      <trkpt lat="39.245741" lon="-6.138912">
        <ele>611.3</ele>
        <time>2016-03-11T08:17:02Z</time>
      </trkpt>
      <trkpt lat="39.245731" lon="-6.138970">
        <ele>609.6</ele>
        <time>2016-03-11T08:17:17Z</time>
      </trkpt>
      <trkpt lat="39.245750" lon="-6.139042">
        <ele>607.1</ele>
        <time>2016-03-11T08:17:32Z</time>
      </trkpt>
      <trkpt lat="39.245748" lon="-6.139106">
        <ele>605.1</ele>
        <time>2016-03-11T08:17:47Z</time>
      </trkpt>
      <trkpt lat="39.245766" lon="-6.139131">
        <ele>604.1</ele>
        <time>2016-03-11T08:18:02Z</time>
      </trkpt>
      <trkpt lat="39.245826" lon="-6.139193">
        <ele>601.4</ele>
        <time>2016-03-11T08:18:17Z</time>
      </trkpt>
      <trkpt lat="39.245848" lon="-6.139247">
        <ele>599.7</ele>
        <time>2016-03-11T08:18:32Z</time>
      </trkpt>
      <trkpt lat="39.245854" lon="-6.139310">
        <ele>598.1</ele>
        <time>2016-03-11T08:18:47Z</time>
      </trkpt>
      <trkpt lat="39.245875" lon="-6.139359">
        <ele>596.5</ele>
        <time>2016-03-11T08:19:02Z</time>
      </trkpt>
      <trkpt lat="39.245901" lon="-6.139392">
        <ele>595.3</ele>
        <time>2016-03-11T08:19:17Z</time>
      </trkpt>
      <trkpt lat="39.245923" lon="-6.139475">
        <ele>592.9</ele>
        <time>2016-03-11T08:19:32Z</time>
      </trkpt>
      <trkpt lat="39.245949" lon="-6.139593">
        <ele>589.7</ele>
        <time>2016-03-11T08:20:02Z</time>
      </trkpt>
      <trkpt lat="39.245990" lon="-6.139730">
        <ele>586.3</ele>
        <time>2016-03-11T08:20:32Z</time>
      </trkpt>
      <trkpt lat="39.246114" lon="-6.140001">
        <ele>582.0</ele>
        <time>2016-03-11T08:21:32Z</time>
      </trkpt>
      <trkpt lat="39.246115" lon="-6.140029">
        <ele>581.7</ele>
        <time>2016-03-11T08:21:47Z</time>
      </trkpt>
      <trkpt lat="39.246057" lon="-6.140064">
        <ele>581.3</ele>
        <time>2016-03-11T08:22:02Z</time>
      </trkpt>
      <trkpt lat="39.245984" lon="-6.140101">
        <ele>580.7</ele>
        <time>2016-03-11T08:22:17Z</time>
      </trkpt>
      <trkpt lat="39.245879" lon="-6.140138">
        <ele>580.1</ele>
        <time>2016-03-11T08:22:32Z</time>
      </trkpt>
      <trkpt lat="39.245750" lon="-6.140207">
        <ele>578.8</ele>
        <time>2016-03-11T08:23:02Z</time>
      </trkpt>
      <trkpt lat="39.245737" lon="-6.140245">
        <ele>578.2</ele>
        <time>2016-03-11T08:23:17Z</time>
      </trkpt>
      <trkpt lat="39.245738" lon="-6.140288">
        <ele>577.6</ele>
        <time>2016-03-11T08:23:32Z</time>
      </trkpt>
      <trkpt lat="39.245764" lon="-6.140333">
        <ele>577.3</ele>
        <time>2016-03-11T08:23:47Z</time>
      </trkpt>
      <trkpt lat="39.245817" lon="-6.140456">
        <ele>576.6</ele>
        <time>2016-03-11T08:24:17Z</time>
      </trkpt>
      <trkpt lat="39.245841" lon="-6.140519">
        <ele>576.3</ele>
        <time>2016-03-11T08:24:32Z</time>
      </trkpt>
      <trkpt lat="39.245878" lon="-6.140569">
        <ele>576.1</ele>
        <time>2016-03-11T08:24:47Z</time>
      </trkpt>
      <trkpt lat="39.245895" lon="-6.140618">
        <ele>575.9</ele>
        <time>2016-03-11T08:25:02Z</time>
      </trkpt>
      <trkpt lat="39.245910" lon="-6.140689">
        <ele>575.6</ele>
        <time>2016-03-11T08:25:17Z</time>
      </trkpt>
      <trkpt lat="39.245886" lon="-6.140780">
        <ele>574.9</ele>
        <time>2016-03-11T08:25:32Z</time>
      </trkpt>
      <trkpt lat="39.245849" lon="-6.140851">
        <ele>574.2</ele>
        <time>2016-03-11T08:25:47Z</time>
      </trkpt>
      <trkpt lat="39.245800" lon="-6.140894">
        <ele>573.6</ele>
        <time>2016-03-11T08:26:02Z</time>
      </trkpt>
      <trkpt lat="39.245759" lon="-6.140948">
        <ele>573.1</ele>
        <time>2016-03-11T08:26:17Z</time>
      </trkpt>
      <trkpt lat="39.245670" lon="-6.141009">
        <ele>571.9</ele>
        <time>2016-03-11T08:26:32Z</time>
      </trkpt>
      <trkpt lat="39.245654" lon="-6.141053">
        <ele>571.6</ele>
        <time>2016-03-11T08:26:47Z</time>
      </trkpt>
      <trkpt lat="39.245612" lon="-6.141090">
        <ele>570.9</ele>
        <time>2016-03-11T08:27:02Z</time>
      </trkpt>
      <trkpt lat="39.245382" lon="-6.141203">
        <ele>569.1</ele>
        <time>2016-03-11T08:27:47Z</time>
      </trkpt>
      <trkpt lat="39.245338" lon="-6.141234">
        <ele>568.7</ele>
        <time>2016-03-11T08:28:02Z</time>
      </trkpt>
      <trkpt lat="39.245298" lon="-6.141244">
        <ele>568.3</ele>
        <time>2016-03-11T08:28:17Z</time>
      </trkpt>
      <trkpt lat="39.245201" lon="-6.141254">
        <ele>567.3</ele>
        <time>2016-03-11T08:28:32Z</time>
      </trkpt>
      <trkpt lat="39.245093" lon="-6.141256">
        <ele>566.3</ele>
        <time>2016-03-11T08:28:47Z</time>
      </trkpt>
      <trkpt lat="39.244999" lon="-6.141277">
        <ele>565.4</ele>
        <time>2016-03-11T08:29:02Z</time>
      </trkpt>
      <trkpt lat="39.244890" lon="-6.141319">
        <ele>564.2</ele>
        <time>2016-03-11T08:29:17Z</time>
      </trkpt>
      <trkpt lat="39.244774" lon="-6.141370">
        <ele>562.7</ele>
        <time>2016-03-11T08:29:32Z</time>
      </trkpt>
      <trkpt lat="39.244684" lon="-6.141382">
        <ele>561.8</ele>
        <time>2016-03-11T08:29:47Z</time>
      </trkpt>
      <trkpt lat="39.244614" lon="-6.141379">
        <ele>561.3</ele>
        <time>2016-03-11T08:30:02Z</time>
      </trkpt>
      <trkpt lat="39.244581" lon="-6.141300">
        <ele>561.6</ele>
        <time>2016-03-11T08:30:17Z</time>
      </trkpt>
      <trkpt lat="39.244568" lon="-6.141251">
        <ele>561.9</ele>
        <time>2016-03-11T08:30:32Z</time>
      </trkpt>
      <trkpt lat="39.244512" lon="-6.141253">
        <ele>561.5</ele>
        <time>2016-03-11T08:30:47Z</time>
      </trkpt>
      <trkpt lat="39.244448" lon="-6.141293">
        <ele>560.7</ele>
        <time>2016-03-11T08:31:02Z</time>
      </trkpt>
      <trkpt lat="39.244412" lon="-6.141318">
        <ele>560.3</ele>
        <time>2016-03-11T08:31:17Z</time>
      </trkpt>
      <trkpt lat="39.244358" lon="-6.141320">
        <ele>560.0</ele>
        <time>2016-03-11T08:31:32Z</time>
      </trkpt>
      <trkpt lat="39.244334" lon="-6.141333">
        <ele>559.8</ele>
        <time>2016-03-11T08:31:47Z</time>
      </trkpt>
      <trkpt lat="39.244275" lon="-6.141303">
        <ele>559.8</ele>
        <time>2016-03-11T08:32:02Z</time>
      </trkpt>
      <trkpt lat="39.244221" lon="-6.141216">
        <ele>560.6</ele>
        <time>2016-03-11T08:32:17Z</time>
      </trkpt>
      <trkpt lat="39.244139" lon="-6.141176">
        <ele>561.2</ele>
        <time>2016-03-11T08:32:32Z</time>
      </trkpt>
      <trkpt lat="39.244077" lon="-6.141158">
        <ele>561.6</ele>
        <time>2016-03-11T08:32:47Z</time>
      </trkpt>
      <trkpt lat="39.244007" lon="-6.141152">
        <ele>562.0</ele>
        <time>2016-03-11T08:33:02Z</time>
      </trkpt>
      <trkpt lat="39.243945" lon="-6.141198">
        <ele>561.5</ele>
        <time>2016-03-11T08:33:17Z</time>
      </trkpt>
      <trkpt lat="39.243774" lon="-6.141370">
        <ele>560.1</ele>
        <time>2016-03-11T08:33:47Z</time>
      </trkpt>
      <trkpt lat="39.243752" lon="-6.141400">
        <ele>559.8</ele>
        <time>2016-03-11T08:34:02Z</time>
      </trkpt>
      <trkpt lat="39.243684" lon="-6.141545">
        <ele>557.8</ele>
        <time>2016-03-11T08:34:32Z</time>
      </trkpt>
      <trkpt lat="39.243663" lon="-6.141621">
        <ele>556.6</ele>
        <time>2016-03-11T08:34:47Z</time>
      </trkpt>
      <trkpt lat="39.243603" lon="-6.141725">
        <ele>555.4</ele>
        <time>2016-03-11T08:35:02Z</time>
      </trkpt>
      <trkpt lat="39.243570" lon="-6.141784">
        <ele>555.0</ele>
        <time>2016-03-11T08:35:17Z</time>
      </trkpt>
      <trkpt lat="39.243520" lon="-6.141852">
        <ele>554.7</ele>
        <time>2016-03-11T08:35:32Z</time>
      </trkpt>
      <trkpt lat="39.243465" lon="-6.141916">
        <ele>554.4</ele>
        <time>2016-03-11T08:35:47Z</time>
      </trkpt>
      <trkpt lat="39.243412" lon="-6.141947">
        <ele>554.4</ele>
        <time>2016-03-11T08:36:02Z</time>
      </trkpt>
      <trkpt lat="39.243354" lon="-6.141964">
        <ele>554.6</ele>
        <time>2016-03-11T08:36:17Z</time>
      </trkpt>
      <trkpt lat="39.243258" lon="-6.141982">
        <ele>554.2</ele>
        <time>2016-03-11T08:36:32Z</time>
      </trkpt>
      <trkpt lat="39.243160" lon="-6.141971">
        <ele>554.1</ele>
        <time>2016-03-11T08:36:47Z</time>
      </trkpt>
      <trkpt lat="39.243049" lon="-6.141927">
        <ele>554.2</ele>
        <time>2016-03-11T08:37:17Z</time>
      </trkpt>
      <trkpt lat="39.243013" lon="-6.141928">
        <ele>554.0</ele>
        <time>2016-03-11T08:37:32Z</time>
      </trkpt>
      <trkpt lat="39.242960" lon="-6.141959">
        <ele>553.5</ele>
        <time>2016-03-11T08:37:47Z</time>
      </trkpt>
      <trkpt lat="39.242823" lon="-6.142066">
        <ele>551.8</ele>
        <time>2016-03-11T08:38:17Z</time>
      </trkpt>
      <trkpt lat="39.242716" lon="-6.142131">
        <ele>551.2</ele>
        <time>2016-03-11T08:38:32Z</time>
      </trkpt>
      <trkpt lat="39.242672" lon="-6.142159">
        <ele>551.1</ele>
        <time>2016-03-11T08:38:47Z</time>
      </trkpt>
      <trkpt lat="39.242649" lon="-6.142221">
        <ele>550.5</ele>
        <time>2016-03-11T08:39:02Z</time>
      </trkpt>
      <trkpt lat="39.242583" lon="-6.142290">
        <ele>550.1</ele>
        <time>2016-03-11T08:39:17Z</time>
      </trkpt>
      <trkpt lat="39.242522" lon="-6.142368">
        <ele>549.4</ele>
        <time>2016-03-11T08:39:32Z</time>
      </trkpt>
      <trkpt lat="39.242457" lon="-6.142498">
        <ele>548.0</ele>
        <time>2016-03-11T08:40:02Z</time>
      </trkpt>
      <trkpt lat="39.242373" lon="-6.142548">
        <ele>547.5</ele>
        <time>2016-03-11T08:40:32Z</time>
      </trkpt>
      <trkpt lat="39.242268" lon="-6.142593">
        <ele>546.8</ele>
        <time>2016-03-11T08:41:02Z</time>
      </trkpt>
      <trkpt lat="39.242123" lon="-6.142645">
        <ele>545.7</ele>
        <time>2016-03-11T08:41:32Z</time>
      </trkpt>
      <trkpt lat="39.242072" lon="-6.142661">
        <ele>545.5</ele>
        <time>2016-03-11T08:41:47Z</time>
      </trkpt>
      <trkpt lat="39.241938" lon="-6.142728">
        <ele>544.6</ele>
        <time>2016-03-11T08:42:17Z</time>
      </trkpt>
      <trkpt lat="39.241827" lon="-6.142802">
        <ele>545.0</ele>
        <time>2016-03-11T08:42:47Z</time>
      </trkpt>
      <trkpt lat="39.241771" lon="-6.142821">
        <ele>545.3</ele>
        <time>2016-03-11T08:43:02Z</time>
      </trkpt>
      <trkpt lat="39.241647" lon="-6.142907">
        <ele>545.2</ele>
        <time>2016-03-11T08:43:32Z</time>
      </trkpt>
      <trkpt lat="39.241594" lon="-6.142933">
        <ele>545.1</ele>
        <time>2016-03-11T08:43:47Z</time>
      </trkpt>
      <trkpt lat="39.241496" lon="-6.142980">
        <ele>544.9</ele>
        <time>2016-03-11T08:44:17Z</time>
      </trkpt>
      <trkpt lat="39.241432" lon="-6.143015">
        <ele>544.6</ele>
        <time>2016-03-11T08:44:32Z</time>
      </trkpt>
      <trkpt lat="39.241232" lon="-6.143063">
        <ele>544.4</ele>
        <time>2016-03-11T08:45:17Z</time>
      </trkpt>
      <trkpt lat="39.241167" lon="-6.143069">
        <ele>544.5</ele>
        <time>2016-03-11T08:45:32Z</time>
      </trkpt>
      <trkpt lat="39.241071" lon="-6.143102">
        <ele>544.3</ele>
        <time>2016-03-11T08:46:02Z</time>
      </trkpt>
      <trkpt lat="39.240996" lon="-6.143160">
        <ele>543.6</ele>
        <time>2016-03-11T08:46:17Z</time>
      </trkpt>
      <trkpt lat="39.240888" lon="-6.143234">
        <ele>542.8</ele>
        <time>2016-03-11T08:46:47Z</time>
      </trkpt>
      <trkpt lat="39.240703" lon="-6.143334">
        <ele>541.9</ele>
        <time>2016-03-11T08:47:17Z</time>
      </trkpt>
      <trkpt lat="39.240485" lon="-6.143433">
        <ele>541.4</ele>
        <time>2016-03-11T08:47:47Z</time>
      </trkpt>
      <trkpt lat="39.240431" lon="-6.143452">
        <ele>541.3</ele>
        <time>2016-03-11T08:48:02Z</time>
      </trkpt>
      <trkpt lat="39.240367" lon="-6.143487">
        <ele>541.0</ele>
        <time>2016-03-11T08:48:17Z</time>
      </trkpt>
      <trkpt lat="39.240279" lon="-6.143496">
        <ele>541.5</ele>
        <time>2016-03-11T08:48:32Z</time>
      </trkpt>
      <trkpt lat="39.240192" lon="-6.143540">
        <ele>542.0</ele>
        <time>2016-03-11T08:48:47Z</time>
      </trkpt>
      <trkpt lat="39.240067" lon="-6.143589">
        <ele>543.2</ele>
        <time>2016-03-11T08:49:02Z</time>
      </trkpt>
      <trkpt lat="39.239996" lon="-6.143620">
        <ele>543.9</ele>
        <time>2016-03-11T08:49:17Z</time>
      </trkpt>
      <trkpt lat="39.239889" lon="-6.143651">
        <ele>544.3</ele>
        <time>2016-03-11T08:49:32Z</time>
      </trkpt>
      <trkpt lat="39.239805" lon="-6.143703">
        <ele>544.1</ele>
        <time>2016-03-11T08:49:47Z</time>
      </trkpt>
      <trkpt lat="39.239727" lon="-6.143767">
        <ele>543.6</ele>
        <time>2016-03-11T08:50:02Z</time>
      </trkpt>
      <trkpt lat="39.239649" lon="-6.143866">
        <ele>542.6</ele>
        <time>2016-03-11T08:50:17Z</time>
      </trkpt>
      <trkpt lat="39.239561" lon="-6.143957">
        <ele>541.7</ele>
        <time>2016-03-11T08:50:32Z</time>
      </trkpt>
      <trkpt lat="39.239474" lon="-6.144021">
        <ele>540.9</ele>
        <time>2016-03-11T08:50:47Z</time>
      </trkpt>
      <trkpt lat="39.239374" lon="-6.144071">
        <ele>540.9</ele>
        <time>2016-03-11T08:51:02Z</time>
      </trkpt>
      <trkpt lat="39.239264" lon="-6.144079">
        <ele>542.3</ele>
        <time>2016-03-11T08:51:17Z</time>
      </trkpt>
      <trkpt lat="39.239090" lon="-6.144138">
        <ele>541.9</ele>
        <time>2016-03-11T08:51:32Z</time>
      </trkpt>
      <trkpt lat="39.238746" lon="-6.144178">
        <ele>541.3</ele>
        <time>2016-03-11T08:52:02Z</time>
      </trkpt>
      <trkpt lat="39.238464" lon="-6.144233">
        <ele>540.5</ele>
        <time>2016-03-11T08:52:32Z</time>
      </trkpt>
      <trkpt lat="39.238211" lon="-6.144292">
        <ele>541.0</ele>
        <time>2016-03-11T08:53:02Z</time>
      </trkpt>
      <trkpt lat="39.238115" lon="-6.144340">
        <ele>541.1</ele>
        <time>2016-03-11T08:53:32Z</time>
      </trkpt>
      <trkpt lat="39.237999" lon="-6.144370">
        <ele>541.7</ele>
        <time>2016-03-11T08:53:47Z</time>
      </trkpt>
      <trkpt lat="39.237934" lon="-6.144373">
        <ele>542.3</ele>
        <time>2016-03-11T08:54:02Z</time>
      </trkpt>
      <trkpt lat="39.237842" lon="-6.144386">
        <ele>543.1</ele>
        <time>2016-03-11T08:54:17Z</time>
      </trkpt>
      <trkpt lat="39.237447" lon="-6.144546">
        <ele>541.0</ele>
        <time>2016-03-11T08:55:32Z</time>
      </trkpt>
      <trkpt lat="39.237345" lon="-6.144620">
        <ele>539.8</ele>
        <time>2016-03-11T08:55:47Z</time>
      </trkpt>
      <trkpt lat="39.237196" lon="-6.144710">
        <ele>538.3</ele>
        <time>2016-03-11T08:56:02Z</time>
      </trkpt>
      <trkpt lat="39.237074" lon="-6.144761">
        <ele>537.6</ele>
        <time>2016-03-11T08:56:17Z</time>
      </trkpt>
      <trkpt lat="39.237000" lon="-6.144767">
        <ele>537.5</ele>
        <time>2016-03-11T08:56:32Z</time>
      </trkpt>
      <trkpt lat="39.236879" lon="-6.144798">
        <ele>537.2</ele>
        <time>2016-03-11T08:56:47Z</time>
      </trkpt>
      <trkpt lat="39.236805" lon="-6.144827">
        <ele>537.1</ele>
        <time>2016-03-11T08:57:02Z</time>
      </trkpt>
      <trkpt lat="39.236676" lon="-6.144896">
        <ele>536.7</ele>
        <time>2016-03-11T08:57:32Z</time>
      </trkpt>
      <trkpt lat="39.236440" lon="-6.144984">
        <ele>537.9</ele>
        <time>2016-03-11T08:58:17Z</time>
      </trkpt>
      <trkpt lat="39.236402" lon="-6.145023">
        <ele>537.7</ele>
        <time>2016-03-11T08:58:32Z</time>
      </trkpt>
      <trkpt lat="39.236374" lon="-6.145076">
        <ele>537.7</ele>
        <time>2016-03-11T08:58:47Z</time>
      </trkpt>
      <trkpt lat="39.236349" lon="-6.145153">
        <ele>537.3</ele>
        <time>2016-03-11T08:59:02Z</time>
      </trkpt>
      <trkpt lat="39.236338" lon="-6.145246">
        <ele>536.5</ele>
        <time>2016-03-11T08:59:32Z</time>
      </trkpt>
      <trkpt lat="39.236394" lon="-6.145304">
        <ele>535.7</ele>
        <time>2016-03-11T08:59:47Z</time>
      </trkpt>
      <trkpt lat="39.236493" lon="-6.145422">
        <ele>534.1</ele>
        <time>2016-03-11T09:00:02Z</time>
      </trkpt>
      <trkpt lat="39.236543" lon="-6.145507">
        <ele>533.3</ele>
        <time>2016-03-11T09:00:17Z</time>
      </trkpt>
      <trkpt lat="39.236692" lon="-6.145634">
        <ele>532.3</ele>
        <time>2016-03-11T09:00:32Z</time>
      </trkpt>
      <trkpt lat="39.236830" lon="-6.145727">
        <ele>530.6</ele>
        <time>2016-03-11T09:00:47Z</time>
      </trkpt>
      <trkpt lat="39.237115" lon="-6.145973">
        <ele>528.0</ele>
        <time>2016-03-11T09:01:17Z</time>
      </trkpt>
      <trkpt lat="39.237290" lon="-6.146117">
        <ele>527.2</ele>
        <time>2016-03-11T09:01:32Z</time>
      </trkpt>
      <trkpt lat="39.237475" lon="-6.146237">
        <ele>526.6</ele>
        <time>2016-03-11T09:01:47Z</time>
      </trkpt>
      <trkpt lat="39.237569" lon="-6.146322">
        <ele>525.6</ele>
        <time>2016-03-11T09:02:02Z</time>
      </trkpt>
      <trkpt lat="39.237603" lon="-6.146396">
        <ele>524.9</ele>
        <time>2016-03-11T09:02:17Z</time>
      </trkpt>
      <trkpt lat="39.237880" lon="-6.146666">
        <ele>522.6</ele>
        <time>2016-03-11T09:03:02Z</time>
      </trkpt>
      <trkpt lat="39.237950" lon="-6.146782">
        <ele>522.2</ele>
        <time>2016-03-11T09:03:17Z</time>
      </trkpt>
      <trkpt lat="39.237958" lon="-6.146825">
        <ele>522.2</ele>
        <time>2016-03-11T09:03:32Z</time>
      </trkpt>
      <trkpt lat="39.237930" lon="-6.146960">
        <ele>522.0</ele>
        <time>2016-03-11T09:03:47Z</time>
      </trkpt>
      <trkpt lat="39.237852" lon="-6.147183">
        <ele>522.0</ele>
        <time>2016-03-11T09:04:17Z</time>
      </trkpt>
      <trkpt lat="39.237870" lon="-6.147399">
        <ele>522.4</ele>
        <time>2016-03-11T09:04:47Z</time>
      </trkpt>
      <trkpt lat="39.237928" lon="-6.147556">
        <ele>522.6</ele>
        <time>2016-03-11T09:05:17Z</time>
      </trkpt>
      <trkpt lat="39.237924" lon="-6.147652">
        <ele>522.7</ele>
        <time>2016-03-11T09:05:32Z</time>
      </trkpt>
      <trkpt lat="39.237865" lon="-6.147822">
        <ele>523.3</ele>
        <time>2016-03-11T09:06:02Z</time>
      </trkpt>
      <trkpt lat="39.237846" lon="-6.147968">
        <ele>523.0</ele>
        <time>2016-03-11T09:06:17Z</time>
      </trkpt>
      <trkpt lat="39.237696" lon="-6.148287">
        <ele>524.7</ele>
        <time>2016-03-11T09:06:47Z</time>
      </trkpt>
      <trkpt lat="39.237635" lon="-6.148451">
        <ele>525.6</ele>
        <time>2016-03-11T09:07:02Z</time>
      </trkpt>
      <trkpt lat="39.237579" lon="-6.148656">
        <ele>526.5</ele>
        <time>2016-03-11T09:07:32Z</time>
      </trkpt>
      <trkpt lat="39.237549" lon="-6.148901">
        <ele>526.3</ele>
        <time>2016-03-11T09:08:02Z</time>
      </trkpt>
      <trkpt lat="39.237549" lon="-6.148988">
        <ele>525.9</ele>
        <time>2016-03-11T09:08:17Z</time>
      </trkpt>
      <trkpt lat="39.237567" lon="-6.149057">
        <ele>525.4</ele>
        <time>2016-03-11T09:08:32Z</time>
      </trkpt>
      <trkpt lat="39.237537" lon="-6.149139">
        <ele>525.6</ele>
        <time>2016-03-11T09:08:47Z</time>
      </trkpt>
      <trkpt lat="39.237340" lon="-6.149384">
        <ele>526.3</ele>
        <time>2016-03-11T09:09:02Z</time>
      </trkpt>
      <trkpt lat="39.237202" lon="-6.149616">
        <ele>526.2</ele>
        <time>2016-03-11T09:09:17Z</time>
      </trkpt>
      <trkpt lat="39.237094" lon="-6.149823">
        <ele>527.8</ele>
        <time>2016-03-11T09:09:32Z</time>
      </trkpt>
      <trkpt lat="39.237000" lon="-6.150102">
        <ele>530.1</ele>
        <time>2016-03-11T09:09:47Z</time>
      </trkpt>
      <trkpt lat="39.236970" lon="-6.150346">
        <ele>531.2</ele>
        <time>2016-03-11T09:10:02Z</time>
      </trkpt>
      <trkpt lat="39.236922" lon="-6.150615">
        <ele>531.3</ele>
        <time>2016-03-11T09:10:17Z</time>
      </trkpt>
      <trkpt lat="39.236851" lon="-6.150846">
        <ele>532.4</ele>
        <time>2016-03-11T09:10:32Z</time>
      </trkpt>
      <trkpt lat="39.236756" lon="-6.151186">
        <ele>533.9</ele>
        <time>2016-03-11T09:10:47Z</time>
      </trkpt>
      <trkpt lat="39.236614" lon="-6.151635">
        <ele>534.1</ele>
        <time>2016-03-11T09:11:17Z</time>
      </trkpt>
      <trkpt lat="39.236567" lon="-6.151744">
        <ele>535.2</ele>
        <time>2016-03-11T09:11:32Z</time>
      </trkpt>
      <trkpt lat="39.236536" lon="-6.151768">
        <ele>535.9</ele>
        <time>2016-03-11T09:12:18Z</time>
      </trkpt>
      <trkpt lat="39.236141" lon="-6.151811">
        <ele>542.2</ele>
        <time>2016-03-11T09:13:15Z</time>
      </trkpt>
      <trkpt lat="39.236077" lon="-6.151859">
        <ele>543.6</ele>
        <time>2016-03-11T09:13:34Z</time>
      </trkpt>
      <trkpt lat="39.236021" lon="-6.151960">
        <ele>545.4</ele>
        <time>2016-03-11T09:14:12Z</time>
      </trkpt>
      <trkpt lat="39.236009" lon="-6.152042">
        <ele>546.4</ele>
        <time>2016-03-11T09:14:31Z</time>
      </trkpt>
      <trkpt lat="39.235991" lon="-6.152138">
        <ele>547.5</ele>
        <time>2016-03-11T09:14:50Z</time>
      </trkpt>
      <trkpt lat="39.235966" lon="-6.152206">
        <ele>548.4</ele>
        <time>2016-03-11T09:15:09Z</time>
      </trkpt>
      <trkpt lat="39.235928" lon="-6.152230">
        <ele>549.0</ele>
        <time>2016-03-11T09:15:28Z</time>
      </trkpt>
      <trkpt lat="39.235880" lon="-6.152296">
        <ele>550.0</ele>
        <time>2016-03-11T09:15:47Z</time>
      </trkpt>
      <trkpt lat="39.235866" lon="-6.152346">
        <ele>550.5</ele>
        <time>2016-03-11T09:16:06Z</time>
      </trkpt>
      <trkpt lat="39.235867" lon="-6.152401">
        <ele>550.8</ele>
        <time>2016-03-11T09:16:25Z</time>
      </trkpt>
      <trkpt lat="39.235884" lon="-6.152470">
        <ele>551.1</ele>
        <time>2016-03-11T09:16:44Z</time>
      </trkpt>
      <trkpt lat="39.235876" lon="-6.152592">
        <ele>551.7</ele>
        <time>2016-03-11T09:17:22Z</time>
      </trkpt>
      <trkpt lat="39.235822" lon="-6.152675">
        <ele>552.8</ele>
        <time>2016-03-11T09:17:41Z</time>
      </trkpt>
      <trkpt lat="39.235570" lon="-6.153227">
        <ele>554.8</ele>
        <time>2016-03-11T09:18:57Z</time>
      </trkpt>
      <trkpt lat="39.235528" lon="-6.153286">
        <ele>555.2</ele>
        <time>2016-03-11T09:19:16Z</time>
      </trkpt>
      <trkpt lat="39.235491" lon="-6.153311">
        <ele>555.5</ele>
        <time>2016-03-11T09:19:35Z</time>
      </trkpt>
      <trkpt lat="39.235259" lon="-6.153871">
        <ele>554.2</ele>
        <time>2016-03-11T09:20:51Z</time>
      </trkpt>
      <trkpt lat="39.235171" lon="-6.153984">
        <ele>554.1</ele>
        <time>2016-03-11T09:21:29Z</time>
      </trkpt>
      <trkpt lat="39.235132" lon="-6.154009">
        <ele>554.2</ele>
        <time>2016-03-11T09:21:48Z</time>
      </trkpt>
      <trkpt lat="39.235084" lon="-6.154014">
        <ele>554.5</ele>
        <time>2016-03-11T09:22:07Z</time>
      </trkpt>
      <trkpt lat="39.235018" lon="-6.153976">
        <ele>555.2</ele>
        <time>2016-03-11T09:22:26Z</time>
      </trkpt>
      <trkpt lat="39.234880" lon="-6.153868">
        <ele>557.5</ele>
        <time>2016-03-11T09:22:45Z</time>
      </trkpt>
      <trkpt lat="39.234814" lon="-6.153839">
        <ele>558.5</ele>
        <time>2016-03-11T09:23:04Z</time>
      </trkpt>
      <trkpt lat="39.234663" lon="-6.153819">
        <ele>560.7</ele>
        <time>2016-03-11T09:23:23Z</time>
      </trkpt>
      <trkpt lat="39.234500" lon="-6.153867">
        <ele>563.1</ele>
        <time>2016-03-11T09:23:42Z</time>
      </trkpt>
      <trkpt lat="39.234361" lon="-6.153898">
        <ele>565.7</ele>
        <time>2016-03-11T09:24:01Z</time>
      </trkpt>
      <trkpt lat="39.234058" lon="-6.154322">
        <ele>569.7</ele>
        <time>2016-03-11T09:24:58Z</time>
      </trkpt>
      <trkpt lat="39.233977" lon="-6.154418">
        <ele>570.4</ele>
        <time>2016-03-11T09:25:17Z</time>
      </trkpt>
      <trkpt lat="39.233722" lon="-6.154584">
        <ele>572.2</ele>
        <time>2016-03-11T09:25:55Z</time>
      </trkpt>
      <trkpt lat="39.233568" lon="-6.154709">
        <ele>573.1</ele>
        <time>2016-03-11T09:26:14Z</time>
      </trkpt>
      <trkpt lat="39.233273" lon="-6.154895">
        <ele>577.5</ele>
        <time>2016-03-11T09:26:52Z</time>
      </trkpt>
      <trkpt lat="39.233041" lon="-6.155093">
        <ele>582.2</ele>
        <time>2016-03-11T09:27:30Z</time>
      </trkpt>
      <trkpt lat="39.232768" lon="-6.155358">
        <ele>588.1</ele>
        <time>2016-03-11T09:28:27Z</time>
      </trkpt>
      <trkpt lat="39.232584" lon="-6.155551">
        <ele>589.3</ele>
        <time>2016-03-11T09:29:24Z</time>
      </trkpt>
      <trkpt lat="39.232373" lon="-6.155780">
        <ele>592.2</ele>
        <time>2016-03-11T09:30:02Z</time>
      </trkpt>
      <trkpt lat="39.232262" lon="-6.155926">
        <ele>593.3</ele>
        <time>2016-03-11T09:30:21Z</time>
      </trkpt>
      <trkpt lat="39.232190" lon="-6.156045">
        <ele>593.5</ele>
        <time>2016-03-11T09:30:59Z</time>
      </trkpt>
      <trkpt lat="39.232167" lon="-6.156202">
        <ele>593.3</ele>
        <time>2016-03-11T09:31:37Z</time>
      </trkpt>
      <trkpt lat="39.232070" lon="-6.156177">
        <ele>595.7</ele>
        <time>2016-03-11T09:31:56Z</time>
      </trkpt>
      <trkpt lat="39.232017" lon="-6.156208">
        <ele>596.9</ele>
        <time>2016-03-11T09:32:15Z</time>
      </trkpt>
      <trkpt lat="39.231831" lon="-6.156529">
        <ele>602.0</ele>
        <time>2016-03-11T09:32:53Z</time>
      </trkpt>
      <trkpt lat="39.231738" lon="-6.156686">
        <ele>604.2</ele>
        <time>2016-03-11T09:33:12Z</time>
      </trkpt>
      <trkpt lat="39.231677" lon="-6.156778">
        <ele>605.4</ele>
        <time>2016-03-11T09:33:31Z</time>
      </trkpt>
      <trkpt lat="39.231640" lon="-6.156843">
        <ele>605.8</ele>
        <time>2016-03-11T09:33:50Z</time>
      </trkpt>
      <trkpt lat="39.231575" lon="-6.156939">
        <ele>606.0</ele>
        <time>2016-03-11T09:34:09Z</time>
      </trkpt>
      <trkpt lat="39.231411" lon="-6.157041">
        <ele>607.0</ele>
        <time>2016-03-11T09:34:47Z</time>
      </trkpt>
      <trkpt lat="39.231367" lon="-6.157083">
        <ele>607.6</ele>
        <time>2016-03-11T09:35:06Z</time>
      </trkpt>
      <trkpt lat="39.231307" lon="-6.157114">
        <ele>609.0</ele>
        <time>2016-03-11T09:35:25Z</time>
      </trkpt>
      <trkpt lat="39.231248" lon="-6.157123">
        <ele>610.4</ele>
        <time>2016-03-11T09:35:44Z</time>
      </trkpt>
      <trkpt lat="39.231223" lon="-6.157103">
        <ele>611.3</ele>
        <time>2016-03-11T09:36:03Z</time>
      </trkpt>
      <trkpt lat="39.231242" lon="-6.156949">
        <ele>612.2</ele>
        <time>2016-03-11T09:36:22Z</time>
      </trkpt>
      <trkpt lat="39.231241" lon="-6.156744">
        <ele>616.3</ele>
        <time>2016-03-11T09:36:41Z</time>
      </trkpt>
      <trkpt lat="39.231226" lon="-6.156466">
        <ele>620.6</ele>
        <time>2016-03-11T09:37:00Z</time>
      </trkpt>
      <trkpt lat="39.231235" lon="-6.156298">
        <ele>622.1</ele>
        <time>2016-03-11T09:37:19Z</time>
      </trkpt>
      <trkpt lat="39.231207" lon="-6.156085">
        <ele>625.3</ele>
        <time>2016-03-11T09:37:38Z</time>
      </trkpt>
      <trkpt lat="39.231191" lon="-6.155610">
        <ele>627.9</ele>
        <time>2016-03-11T09:38:16Z</time>
      </trkpt>
      <trkpt lat="39.231223" lon="-6.155172">
        <ele>629.5</ele>
        <time>2016-03-11T09:38:54Z</time>
      </trkpt>
      <trkpt lat="39.231322" lon="-6.154710">
        <ele>630.1</ele>
        <time>2016-03-11T09:39:51Z</time>
      </trkpt>
      <trkpt lat="39.231338" lon="-6.154536">
        <ele>633.0</ele>
        <time>2016-03-11T09:40:10Z</time>
      </trkpt>
      <trkpt lat="39.231401" lon="-6.154142">
        <ele>637.0</ele>
        <time>2016-03-11T09:40:48Z</time>
      </trkpt>
      <trkpt lat="39.231396" lon="-6.153937">
        <ele>639.3</ele>
        <time>2016-03-11T09:41:07Z</time>
      </trkpt>
      <trkpt lat="39.231410" lon="-6.153514">
        <ele>645.4</ele>
        <time>2016-03-11T09:41:45Z</time>
      </trkpt>
      <trkpt lat="39.231428" lon="-6.153302">
        <ele>648.6</ele>
        <time>2016-03-11T09:42:04Z</time>
      </trkpt>
      <trkpt lat="39.231442" lon="-6.152901">
        <ele>652.8</ele>
        <time>2016-03-11T09:42:42Z</time>
      </trkpt>
      <trkpt lat="39.231465" lon="-6.152622">
        <ele>654.5</ele>
        <time>2016-03-11T09:43:01Z</time>
      </trkpt>
      <trkpt lat="39.231472" lon="-6.152370">
        <ele>656.2</ele>
        <time>2016-03-11T09:43:20Z</time>
      </trkpt>
      <trkpt lat="39.231493" lon="-6.152007">
        <ele>657.3</ele>
        <time>2016-03-11T09:43:58Z</time>
      </trkpt>
      <trkpt lat="39.231485" lon="-6.151895">
        <ele>657.3</ele>
        <time>2016-03-11T09:44:17Z</time>
      </trkpt>
      <trkpt lat="39.231446" lon="-6.151772">
        <ele>657.6</ele>
        <time>2016-03-11T09:44:36Z</time>
      </trkpt>
      <trkpt lat="39.231363" lon="-6.151671">
        <ele>658.4</ele>
        <time>2016-03-11T09:44:55Z</time>
      </trkpt>
      <trkpt lat="39.231289" lon="-6.151515">
        <ele>659.1</ele>
        <time>2016-03-11T09:45:14Z</time>
      </trkpt>
      <trkpt lat="39.231218" lon="-6.151349">
        <ele>660.2</ele>
        <time>2016-03-11T09:45:33Z</time>
      </trkpt>
      <trkpt lat="39.231135" lon="-6.151115">
        <ele>662.5</ele>
        <time>2016-03-11T09:45:52Z</time>
      </trkpt>
      <trkpt lat="39.231084" lon="-6.150877">
        <ele>661.8</ele>
        <time>2016-03-11T09:46:11Z</time>
      </trkpt>
      <trkpt lat="39.231019" lon="-6.150674">
        <ele>661.7</ele>
        <time>2016-03-11T09:46:30Z</time>
      </trkpt>
      <trkpt lat="39.230916" lon="-6.150539">
        <ele>662.0</ele>
        <time>2016-03-11T09:46:49Z</time>
      </trkpt>
      <trkpt lat="39.230741" lon="-6.150375">
        <ele>662.7</ele>
        <time>2016-03-11T09:47:08Z</time>
      </trkpt>
      <trkpt lat="39.230649" lon="-6.150298">
        <ele>663.1</ele>
        <time>2016-03-11T09:47:27Z</time>
      </trkpt>
      <trkpt lat="39.230494" lon="-6.150212">
        <ele>664.5</ele>
        <time>2016-03-11T09:47:46Z</time>
      </trkpt>
      <trkpt lat="39.230390" lon="-6.150210">
        <ele>665.3</ele>
        <time>2016-03-11T09:48:05Z</time>
      </trkpt>
      <trkpt lat="39.230155" lon="-6.150280">
        <ele>666.9</ele>
        <time>2016-03-11T09:48:24Z</time>
      </trkpt>
      <trkpt lat="39.230035" lon="-6.150337">
        <ele>667.6</ele>
        <time>2016-03-11T09:48:43Z</time>
      </trkpt>
      <trkpt lat="39.229757" lon="-6.150369">
        <ele>669.7</ele>
        <time>2016-03-11T09:49:21Z</time>
      </trkpt>
      <trkpt lat="39.229674" lon="-6.150404">
        <ele>670.3</ele>
        <time>2016-03-11T09:49:40Z</time>
      </trkpt>
      <trkpt lat="39.229616" lon="-6.150415">
        <ele>670.8</ele>
        <time>2016-03-11T09:49:59Z</time>
      </trkpt>
      <trkpt lat="39.229502" lon="-6.150440">
        <ele>671.6</ele>
        <time>2016-03-11T09:50:37Z</time>
      </trkpt>
      <trkpt lat="39.229472" lon="-6.150415">
        <ele>671.8</ele>
        <time>2016-03-11T09:50:56Z</time>
      </trkpt>
      <trkpt lat="39.229481" lon="-6.150345">
        <ele>671.7</ele>
        <time>2016-03-11T09:51:15Z</time>
      </trkpt>
      <trkpt lat="39.229521" lon="-6.150312">
        <ele>671.4</ele>
        <time>2016-03-11T09:51:34Z</time>
      </trkpt>
      <trkpt lat="39.229523" lon="-6.150190">
        <ele>671.4</ele>
        <time>2016-03-11T09:51:53Z</time>
      </trkpt>
      <trkpt lat="39.229436" lon="-6.149962">
        <ele>672.3</ele>
        <time>2016-03-11T09:52:31Z</time>
      </trkpt>
      <trkpt lat="39.229359" lon="-6.149655">
        <ele>674.6</ele>
        <time>2016-03-11T09:53:09Z</time>
      </trkpt>
      <trkpt lat="39.229320" lon="-6.149437">
        <ele>676.4</ele>
        <time>2016-03-11T09:53:28Z</time>
      </trkpt>
      <trkpt lat="39.229326" lon="-6.149138">
        <ele>678.0</ele>
        <time>2016-03-11T09:54:06Z</time>
      </trkpt>
      <trkpt lat="39.229376" lon="-6.148876">
        <ele>678.7</ele>
        <time>2016-03-11T09:54:44Z</time>
      </trkpt>
      <trkpt lat="39.229352" lon="-6.148732">
        <ele>678.4</ele>
        <time>2016-03-11T09:55:03Z</time>
      </trkpt>
      <trkpt lat="39.229295" lon="-6.148633">
        <ele>678.7</ele>
        <time>2016-03-11T09:55:22Z</time>
      </trkpt>
      <trkpt lat="39.229119" lon="-6.148533">
        <ele>679.5</ele>
        <time>2016-03-11T09:56:00Z</time>
      </trkpt>
      <trkpt lat="39.229027" lon="-6.148531">
        <ele>680.3</ele>
        <time>2016-03-11T09:56:19Z</time>
      </trkpt>
      <trkpt lat="39.228900" lon="-6.148481">
        <ele>681.0</ele>
        <time>2016-03-11T09:56:38Z</time>
      </trkpt>
      <trkpt lat="39.228792" lon="-6.148422">
        <ele>681.7</ele>
        <time>2016-03-11T09:56:57Z</time>
      </trkpt>
      <trkpt lat="39.228710" lon="-6.148350">
        <ele>682.1</ele>
        <time>2016-03-11T09:57:16Z</time>
      </trkpt>
      <trkpt lat="39.228553" lon="-6.148284">
        <ele>682.9</ele>
        <time>2016-03-11T09:57:35Z</time>
      </trkpt>
      <trkpt lat="39.228015" lon="-6.148030">
        <ele>686.7</ele>
        <time>2016-03-11T09:58:32Z</time>
      </trkpt>
      <trkpt lat="39.227921" lon="-6.147953">
        <ele>688.2</ele>
        <time>2016-03-11T09:58:51Z</time>
      </trkpt>
      <trkpt lat="39.227846" lon="-6.147860">
        <ele>689.2</ele>
        <time>2016-03-11T09:59:10Z</time>
      </trkpt>
      <trkpt lat="39.227751" lon="-6.147725">
        <ele>690.7</ele>
        <time>2016-03-11T09:59:29Z</time>
      </trkpt>
      <trkpt lat="39.227630" lon="-6.147504">
        <ele>693.2</ele>
        <time>2016-03-11T09:59:48Z</time>
      </trkpt>
      <trkpt lat="39.227488" lon="-6.147319">
        <ele>694.2</ele>
        <time>2016-03-11T10:00:07Z</time>
      </trkpt>
      <trkpt lat="39.227379" lon="-6.147190">
        <ele>694.4</ele>
        <time>2016-03-11T10:00:26Z</time>
      </trkpt>
      <trkpt lat="39.227318" lon="-6.147155">
        <ele>695.1</ele>
        <time>2016-03-11T10:00:45Z</time>
      </trkpt>
      <trkpt lat="39.227228" lon="-6.147182">
        <ele>696.6</ele>
        <time>2016-03-11T10:01:04Z</time>
      </trkpt>
      <trkpt lat="39.227175" lon="-6.147219">
        <ele>697.3</ele>
        <time>2016-03-11T10:01:23Z</time>
      </trkpt>
      <trkpt lat="39.227100" lon="-6.147164">
        <ele>697.6</ele>
        <time>2016-03-11T10:01:42Z</time>
      </trkpt>
      <trkpt lat="39.227046" lon="-6.147169">
        <ele>698.0</ele>
        <time>2016-03-11T10:02:01Z</time>
      </trkpt>
      <trkpt lat="39.226888" lon="-6.147004">
        <ele>698.4</ele>
        <time>2016-03-11T10:02:39Z</time>
      </trkpt>
      <trkpt lat="39.226929" lon="-6.146913">
        <ele>697.9</ele>
        <time>2016-03-11T10:02:58Z</time>
      </trkpt>
      <trkpt lat="39.226993" lon="-6.146879">
        <ele>697.2</ele>
        <time>2016-03-11T10:03:17Z</time>
      </trkpt>
    </trkseg>
  </trk></gpx>